createdAt,value
2022-11-29T00:00:47.331Z,5.17
2022-11-29T00:03:14.301Z,5.14
2022-11-29T00:05:40.896Z,5.13
2022-11-29T00:08:07.267Z,5.16
2022-11-29T00:10:36.880Z,5.17
2022-11-29T00:13:03.373Z,5.20
2022-11-29T00:15:29.765Z,5.21
2022-11-29T00:17:56.157Z,5.22
2022-11-29T00:20:22.536Z,5.21
2022-11-29T00:22:48.910Z,5.21
2022-11-29T00:25:15.273Z,5.22
2022-11-29T00:27:41.639Z,5.21
2022-11-29T00:30:08.616Z,5.16
2022-11-29T00:32:35.539Z,5.10
2022-11-29T00:35:06.593Z,5.09
2022-11-29T00:37:35.807Z,5.10
2022-11-29T00:40:02.314Z,5.14
2022-11-29T00:42:28.671Z,5.16
2022-11-29T00:44:55.010Z,5.18
2022-11-29T00:47:21.376Z,5.20
2022-11-29T00:49:47.743Z,5.18
2022-11-29T00:52:14.077Z,5.17
2022-11-29T00:54:40.473Z,5.05
2022-11-29T00:57:06.898Z,5.00
2022-11-29T00:59:33.262Z,5.07
2022-11-29T01:01:59.652Z,5.12
2022-11-29T01:04:26.036Z,5.10
2022-11-29T01:06:52.579Z,5.02
2022-11-29T01:09:19.220Z,5.05
2022-11-29T01:11:45.606Z,5.09
2022-11-29T01:14:12.137Z,5.11
2022-11-29T01:16:38.522Z,5.05
2022-11-29T01:19:04.998Z,5.08
2022-11-29T01:21:31.386Z,5.05
2022-11-29T01:23:57.753Z,5.07
2022-11-29T01:26:25.759Z,5.06
2022-11-29T01:28:53.010Z,5.10
2022-11-29T01:31:24.568Z,5.12
2022-11-29T01:33:59.064Z,5.13
2022-11-29T01:36:25.685Z,5.11
2022-11-29T01:38:52.221Z,5.10
2022-11-29T01:41:23.566Z,5.12
2022-11-29T01:44:05.178Z,5.14
2022-11-29T01:46:36.771Z,5.14
2022-11-29T01:49:39.250Z,5.13
2022-11-29T01:52:10.937Z,5.11
2022-11-29T01:54:39.557Z,5.09
2022-11-29T01:57:06.651Z,5.09
2022-11-29T01:59:33.034Z,5.09
2022-11-29T02:02:03.034Z,5.12
2022-11-29T02:04:32.247Z,5.12
2022-11-29T02:06:58.590Z,5.08
2022-11-29T02:09:24.927Z,5.10
2022-11-29T02:12:03.560Z,5.11
2022-11-29T02:14:29.926Z,5.10
2022-11-29T02:17:14.680Z,5.11
2022-11-29T02:20:05.597Z,5.07
2022-11-29T02:22:37.186Z,5.05
2022-11-29T02:25:33.042Z,4.99
2022-11-29T02:28:24.283Z,4.94
2022-11-29T02:31:01.903Z,4.98
2022-11-29T02:33:49.874Z,5.03
2022-11-29T02:36:37.764Z,5.01
2022-11-29T02:39:07.058Z,5.04
2022-11-29T02:41:44.671Z,4.96
2022-11-29T02:44:23.048Z,4.99
2022-11-29T02:46:51.645Z,4.99
2022-11-29T02:49:30.412Z,5.03
2022-11-29T02:52:06.327Z,5.02
2022-11-29T02:54:45.338Z,5.05
2022-11-29T02:57:30.175Z,5.00
2022-11-29T03:00:06.644Z,5.01
2022-11-29T03:02:41.190Z,5.05
2022-11-29T03:05:28.955Z,5.05
2022-11-29T03:08:00.936Z,5.04
2022-11-29T03:10:43.484Z,5.06
2022-11-29T03:13:39.679Z,5.05
2022-11-29T03:16:09.147Z,5.07
2022-11-29T03:19:32.748Z,5.07
2022-11-29T03:22:26.203Z,5.08
2022-11-29T03:25:14.252Z,5.10
2022-11-29T03:27:42.099Z,5.12
2022-11-29T03:30:10.781Z,5.10
2022-11-29T03:32:43.221Z,5.09
2022-11-29T03:35:16.177Z,5.09
2022-11-29T03:37:59.680Z,5.06
2022-11-29T03:40:32.131Z,5.05
2022-11-29T03:43:07.837Z,5.03
2022-11-29T03:45:42.717Z,5.05
2022-11-29T03:48:17.495Z,5.08
2022-11-29T03:51:16.123Z,5.08
2022-11-29T03:53:52.004Z,5.11
2022-11-29T03:56:22.990Z,5.04
2022-11-29T03:58:57.815Z,5.08
2022-11-29T04:01:54.672Z,5.08
2022-11-29T04:04:33.285Z,5.11
2022-11-29T04:07:18.489Z,5.11
2022-11-29T04:10:18.946Z,5.11
2022-11-29T04:13:16.505Z,5.09
2022-11-29T04:15:58.556Z,5.13
2022-11-29T04:18:52.457Z,5.14
2022-11-29T04:21:50.353Z,5.14
2022-11-29T04:24:44.586Z,5.13
2022-11-29T04:27:29.986Z,5.15
2022-11-29T04:30:19.286Z,5.14
2022-11-29T04:32:59.769Z,5.14
2022-11-29T04:36:03.115Z,5.14
2022-11-29T04:38:37.727Z,5.17
2022-11-29T04:41:13.370Z,5.16
2022-11-29T04:43:45.756Z,5.12
2022-11-29T04:46:33.891Z,5.04
2022-11-29T04:49:12.366Z,5.02
2022-11-29T04:52:16.427Z,5.05
2022-11-29T04:55:31.136Z,5.08
2022-11-29T04:58:06.536Z,5.10
2022-11-29T05:00:38.313Z,5.10
2022-11-29T05:03:07.932Z,5.12
2022-11-29T05:06:02.810Z,5.10
2022-11-29T05:09:01.715Z,5.09
2022-11-29T05:11:58.702Z,5.11
2022-11-29T05:15:08.025Z,5.12
2022-11-29T05:17:43.643Z,5.10
2022-11-29T05:20:22.327Z,5.12
2022-11-29T05:23:25.696Z,5.11
2022-11-29T05:25:57.188Z,5.12
2022-11-29T05:28:52.756Z,5.08
2022-11-29T05:31:46.790Z,5.09
2022-11-29T05:34:57.842Z,5.07
2022-11-29T05:37:59.735Z,5.07
2022-11-29T05:40:45.102Z,5.09
2022-11-29T05:43:36.287Z,5.09
2022-11-29T05:46:07.190Z,5.08
2022-11-29T05:48:46.706Z,5.08
2022-11-29T05:51:29.367Z,5.11
2022-11-29T05:54:08.016Z,5.11
2022-11-29T05:56:41.043Z,5.09
2022-11-29T05:59:16.963Z,5.11
2022-11-29T06:01:58.925Z,5.10
2022-11-29T06:04:47.084Z,5.09
2022-11-29T06:07:26.741Z,5.11
2022-11-29T06:10:05.474Z,5.07
2022-11-29T06:12:35.751Z,5.07
2022-11-29T06:15:15.203Z,5.07
2022-11-29T06:18:01.993Z,4.97
2022-11-29T06:20:51.144Z,4.96
2022-11-29T06:23:29.544Z,5.00
2022-11-29T06:26:25.182Z,5.03
2022-11-29T06:29:25.272Z,5.03
2022-11-29T06:31:55.883Z,5.03
2022-11-29T06:34:30.824Z,5.02
2022-11-29T06:37:02.355Z,4.99
2022-11-29T06:39:28.915Z,4.99
2022-11-29T06:41:55.340Z,4.96
2022-11-29T06:44:21.940Z,4.95
2022-11-29T06:47:12.173Z,4.83
2022-11-29T06:49:44.468Z,4.77
2022-11-29T06:52:47.262Z,4.75
2022-11-29T06:55:19.753Z,4.72
2022-11-29T06:57:55.171Z,4.69
2022-11-29T07:00:23.528Z,4.69
2022-11-29T07:03:17.858Z,4.77
2022-11-29T07:05:44.388Z,4.77
2022-11-29T07:08:19.392Z,4.75
2022-11-29T07:10:49.367Z,4.73
2022-11-29T07:13:16.763Z,4.72
2022-11-29T07:16:03.803Z,4.73
2022-11-29T07:18:44.608Z,4.75
2022-11-29T07:21:23.635Z,4.77
2022-11-29T07:23:56.102Z,4.80
2022-11-29T07:26:39.913Z,4.81
2022-11-29T07:29:38.805Z,4.87
2022-11-29T07:32:08.327Z,4.90
2022-11-29T07:34:40.989Z,4.95
2022-11-29T07:37:26.055Z,4.90
2022-11-29T07:40:17.194Z,4.84
2022-11-29T07:43:11.189Z,4.90
2022-11-29T07:45:37.610Z,4.87
2022-11-29T07:48:04.478Z,4.93
2022-11-29T07:50:30.944Z,4.93
2022-11-29T07:52:57.448Z,4.94
2022-11-29T07:55:24.798Z,4.84
2022-11-29T07:57:51.677Z,4.79
2022-11-29T08:00:18.643Z,4.79
2022-11-29T08:02:45.126Z,4.85
2022-11-29T08:05:11.546Z,4.84
2022-11-29T08:07:38.601Z,4.89
2022-11-29T08:10:07.033Z,4.90
2022-11-29T08:12:33.442Z,4.94
2022-11-29T08:14:59.807Z,4.94
2022-11-29T08:17:26.177Z,4.96
2022-11-29T08:19:52.885Z,5.01
2022-11-29T08:22:19.281Z,5.05
2022-11-29T08:24:45.808Z,5.06
2022-11-29T08:27:12.288Z,5.12
2022-11-29T08:29:38.645Z,5.10
2022-11-29T08:32:05.778Z,5.11
2022-11-29T08:34:32.278Z,5.15
2022-11-29T08:36:58.689Z,5.17
2022-11-29T08:39:25.048Z,5.06
2022-11-29T08:41:51.460Z,4.97
2022-11-29T08:44:18.294Z,4.95
2022-11-29T08:47:03.353Z,4.91
2022-11-29T08:49:29.719Z,4.98
2022-11-29T08:52:16.071Z,4.98
2022-11-29T08:54:42.633Z,5.03
2022-11-29T08:59:55.636Z,5.00
2022-11-29T09:02:22.032Z,4.95
2022-11-29T09:04:48.453Z,4.99
2022-11-29T09:07:16.076Z,5.04
2022-11-29T09:09:42.501Z,5.05
2022-11-29T09:12:08.842Z,5.05
2022-11-29T09:14:35.226Z,5.08
2022-11-29T09:17:01.698Z,5.09
2022-11-29T09:19:28.307Z,5.13
2022-11-29T09:21:54.658Z,5.22
2022-11-29T09:24:21.025Z,5.22
2022-11-29T09:26:50.427Z,5.21
2022-11-29T09:29:16.984Z,5.23
2022-11-29T09:31:46.358Z,5.31
2022-11-29T09:34:16.445Z,5.26
2022-11-29T09:36:45.796Z,5.27
2022-11-29T09:39:15.020Z,5.32
2022-11-29T09:42:00.035Z,5.40
2022-11-29T09:44:44.884Z,5.38
2022-11-29T09:47:23.485Z,5.43
2022-11-29T09:50:00.218Z,5.43
2022-11-29T09:52:46.487Z,5.47
2022-11-29T09:55:35.224Z,5.50
2022-11-29T09:58:03.677Z,5.49
2022-11-29T10:00:30.674Z,5.51
2022-11-29T10:03:01.202Z,5.43
2022-11-29T10:05:30.566Z,5.39
2022-11-29T10:08:08.799Z,5.46
2022-11-29T10:10:48.687Z,5.54
2022-11-29T10:13:31.858Z,5.58
2022-11-29T10:16:03.046Z,5.65
2022-11-29T10:18:33.679Z,5.69
2022-11-29T10:21:04.989Z,5.72
2022-11-29T10:23:34.245Z,5.68
2022-11-29T10:26:00.628Z,5.74
2022-11-29T10:28:32.119Z,5.73
2022-11-29T10:31:02.308Z,5.76
2022-11-29T10:33:30.901Z,5.79
2022-11-29T10:35:59.505Z,5.78
2022-11-29T10:38:33.025Z,5.76
2022-11-29T10:41:10.481Z,5.69
2022-11-29T10:43:37.442Z,5.67
2022-11-29T10:46:03.979Z,5.59
2022-11-29T10:48:34.301Z,5.65
2022-11-29T10:51:00.910Z,5.68
2022-11-29T10:53:28.216Z,5.57
2022-11-29T10:56:07.430Z,5.48
2022-11-29T10:58:33.914Z,5.52
2022-11-29T11:01:08.322Z,5.50
2022-11-29T11:03:41.771Z,5.54
2022-11-29T11:06:16.137Z,5.57
2022-11-29T11:08:56.785Z,5.61
2022-11-29T11:11:28.508Z,5.67
2022-11-29T11:14:06.001Z,5.66
2022-11-29T11:16:37.004Z,5.61
2022-11-29T11:19:25.226Z,5.61
2022-11-29T11:21:51.569Z,5.54
2022-11-29T11:24:24.422Z,5.60
2022-11-29T11:26:50.814Z,5.66
2022-11-29T11:29:23.104Z,5.73
2022-11-29T11:31:57.058Z,5.78
2022-11-29T11:34:29.947Z,5.76
2022-11-29T11:37:13.403Z,5.72
2022-11-29T11:39:39.833Z,5.77
2022-11-29T11:42:24.792Z,5.72
2022-11-29T11:44:53.262Z,5.76
2022-11-29T11:47:21.448Z,5.78
2022-11-29T11:50:07.050Z,5.79
2022-11-29T11:52:41.264Z,5.70
2022-11-29T11:55:21.174Z,5.67
2022-11-29T11:58:10.341Z,5.72
2022-11-29T12:01:02.790Z,5.74
2022-11-29T12:03:49.940Z,5.78
2022-11-29T12:06:28.440Z,5.82
2022-11-29T12:09:02.705Z,5.80
2022-11-29T12:11:45.666Z,5.80
2022-11-29T12:14:18.649Z,5.79
2022-11-29T12:16:45.057Z,5.81
2022-11-29T12:19:21.424Z,5.77
2022-11-29T12:21:52.388Z,5.81
2022-11-29T12:24:26.515Z,5.84
2022-11-29T12:26:58.099Z,5.87
2022-11-29T12:29:24.803Z,5.85
2022-11-29T12:32:14.449Z,5.84
2022-11-29T12:34:55.978Z,5.88
2022-11-29T12:37:25.639Z,5.84
2022-11-29T12:39:57.619Z,5.83
2022-11-29T12:42:49.047Z,5.76
2022-11-29T12:45:37.823Z,5.74
2022-11-29T12:48:10.309Z,5.76
2022-11-29T12:50:50.810Z,5.76
2022-11-29T12:53:55.833Z,5.76
2022-11-29T12:56:32.843Z,5.84
2022-11-29T12:59:21.058Z,5.88
2022-11-29T13:02:24.506Z,5.95
2022-11-29T13:05:05.752Z,5.93
2022-11-29T13:07:57.487Z,5.99
2022-11-29T13:11:01.310Z,6.04
2022-11-29T13:13:36.570Z,6.00
2022-11-29T13:16:31.319Z,6.00
2022-11-29T13:19:02.695Z,5.98
2022-11-29T13:21:37.264Z,6.01
2022-11-29T13:24:10.652Z,6.04
2022-11-29T13:26:38.468Z,6.04
2022-11-29T13:29:04.914Z,6.07
2022-11-29T13:31:31.353Z,6.08
2022-11-29T13:34:19.585Z,6.02
2022-11-29T13:36:52.146Z,5.99
2022-11-29T13:39:24.483Z,6.01
2022-11-29T13:42:15.882Z,6.04
2022-11-29T13:44:55.335Z,6.00
2022-11-29T13:47:21.726Z,5.91
2022-11-29T13:50:03.922Z,5.92
2022-11-29T13:52:43.112Z,5.91
2022-11-29T13:55:12.483Z,5.93
2022-11-29T14:00:44.528Z,5.92
2022-11-29T14:03:23.033Z,5.92
2022-11-29T14:06:01.623Z,5.94
2022-11-29T14:08:55.021Z,5.91
2022-11-29T14:11:43.148Z,5.93
2022-11-29T14:14:15.518Z,5.90
2022-11-29T14:16:41.872Z,5.86
2022-11-29T14:19:08.266Z,5.84
2022-11-29T14:21:56.778Z,5.68
2022-11-29T14:24:32.032Z,5.65
2022-11-29T14:27:07.789Z,5.59
2022-11-29T14:29:49.049Z,5.62
2022-11-29T14:32:30.613Z,5.63
2022-11-29T14:35:12.194Z,5.72
2022-11-29T14:38:12.803Z,5.76
2022-11-29T14:40:41.965Z,5.72
2022-11-29T14:43:37.581Z,5.73
2022-11-29T14:46:29.063Z,5.77
2022-11-29T14:48:55.907Z,5.78
2022-11-29T14:51:26.305Z,5.75
2022-11-29T14:54:04.466Z,5.76
2022-11-29T14:56:30.792Z,5.78
2022-11-29T14:59:34.593Z,5.75
2022-11-29T15:02:02.628Z,5.77
2022-11-29T15:04:35.385Z,5.74
2022-11-29T15:07:01.733Z,5.73
2022-11-29T15:09:28.102Z,5.73
2022-11-29T15:12:23.906Z,5.73
2022-11-29T15:15:18.134Z,5.72
2022-11-29T15:18:00.883Z,5.69
2022-11-29T15:20:39.334Z,5.68
2022-11-29T15:23:07.864Z,5.70
2022-11-29T15:25:34.317Z,5.67
2022-11-29T15:28:05.833Z,5.67
2022-11-29T15:30:32.498Z,5.66
2022-11-29T15:32:59.574Z,5.67
2022-11-29T15:35:26.123Z,5.68
2022-11-29T15:37:52.546Z,5.69
2022-11-29T15:40:21.120Z,5.64
2022-11-29T15:42:54.596Z,5.64
2022-11-29T15:45:34.872Z,5.54
2022-11-29T15:48:20.552Z,5.50
2022-11-29T15:51:24.373Z,5.55
2022-11-29T15:54:27.142Z,5.55
2022-11-29T15:56:59.298Z,5.54
2022-11-29T15:59:57.443Z,5.56
2022-11-29T16:02:28.764Z,5.57
2022-11-29T16:04:57.219Z,5.54
2022-11-29T16:07:24.322Z,5.56
2022-11-29T16:09:57.821Z,5.58
2022-11-29T16:12:24.172Z,5.57
2022-11-29T16:14:57.948Z,5.51
2022-11-29T16:17:28.894Z,5.53
2022-11-29T16:20:25.555Z,5.54
2022-11-29T16:23:04.769Z,5.52
2022-11-29T16:25:37.244Z,5.49
2022-11-29T16:28:05.868Z,5.47
2022-11-29T16:30:32.256Z,5.48
2022-11-29T16:32:59.350Z,5.47
2022-11-29T16:35:36.157Z,5.49
2022-11-29T16:38:05.590Z,5.43
2022-11-29T16:40:33.372Z,5.42
2022-11-29T16:43:02.818Z,5.40
2022-11-29T16:45:35.290Z,5.40
2022-11-29T16:48:02.784Z,5.42
2022-11-29T16:50:32.741Z,5.32
2022-11-29T16:53:36.780Z,5.29
2022-11-29T16:56:09.254Z,5.29
2022-11-29T16:58:41.688Z,5.30
2022-11-29T17:01:26.747Z,5.33
2022-11-29T17:03:53.424Z,5.30
2022-11-29T17:06:22.455Z,5.31
2022-11-29T17:08:49.850Z,5.34
2022-11-29T17:11:16.213Z,5.32
2022-11-29T17:13:42.623Z,5.29
2022-11-29T17:16:13.502Z,5.32
2022-11-29T17:18:41.275Z,5.35
2022-11-29T17:21:18.643Z,5.37
2022-11-29T17:23:45.586Z,5.38
2022-11-29T17:26:12.016Z,5.35
2022-11-29T17:28:40.272Z,5.36
2022-11-29T17:31:14.635Z,5.37
2022-11-29T17:33:41.130Z,5.39
2022-11-29T17:36:08.408Z,5.39
2022-11-29T17:38:34.996Z,5.42
2022-11-29T17:41:08.465Z,5.37
2022-11-29T17:43:35.548Z,5.40
2022-11-29T17:46:16.473Z,5.34
2022-11-29T17:48:45.377Z,5.29
2022-11-29T17:51:43.700Z,5.27
2022-11-29T17:54:02.907Z,5.32
2022-11-29T17:56:29.925Z,5.34
2022-11-29T17:58:57.663Z,5.34
2022-11-29T18:01:25.569Z,5.36
2022-11-29T18:03:56.427Z,5.38
2022-11-29T18:06:26.909Z,5.38
2022-11-29T18:08:55.326Z,5.37
2022-11-29T18:11:26.647Z,5.30
2022-11-29T18:13:53.663Z,5.36
2022-11-29T18:16:24.395Z,5.36
2022-11-29T18:18:58.807Z,5.35
2022-11-29T18:21:25.333Z,5.37
2022-11-29T18:23:51.786Z,5.39
2022-11-29T18:26:19.814Z,5.40
2022-11-29T18:28:46.448Z,5.38
2022-11-29T18:31:12.832Z,5.36
2022-11-29T18:33:39.981Z,5.26
2022-11-29T18:36:09.905Z,5.24
2022-11-29T18:38:40.550Z,5.27
2022-11-29T18:41:08.015Z,5.22
2022-11-29T18:43:34.668Z,5.21
2022-11-29T18:46:14.650Z,5.25
2022-11-29T18:48:41.300Z,5.29
2022-11-29T18:51:09.491Z,5.29
2022-11-29T18:53:36.331Z,5.29
2022-11-29T18:56:15.575Z,5.22
2022-11-29T18:58:47.311Z,5.29
2022-11-29T19:01:16.363Z,5.31
2022-11-29T19:03:44.738Z,5.29
2022-11-29T19:06:13.030Z,5.29
2022-11-29T19:08:39.562Z,5.21
2022-11-29T19:11:11.001Z,5.19
2022-11-29T19:13:37.510Z,5.22
2022-11-29T19:16:04.353Z,5.20
2022-11-29T19:18:30.716Z,5.24
2022-11-29T19:21:23.924Z,5.29
2022-11-29T19:24:02.133Z,5.27
2022-11-29T19:26:29.669Z,5.32
2022-11-29T19:28:56.123Z,5.36
2022-11-29T19:31:25.014Z,5.31
2022-11-29T19:33:52.463Z,5.19
2022-11-29T19:36:26.708Z,5.25
2022-11-29T19:38:54.035Z,5.27
2022-11-29T19:41:21.681Z,5.26
2022-11-29T19:43:48.416Z,5.26
2022-11-29T19:46:19.168Z,5.23
2022-11-29T19:48:45.788Z,5.18
2022-11-29T19:51:12.772Z,5.20
2022-11-29T19:53:39.394Z,5.16
2022-11-29T19:56:11.164Z,5.20
2022-11-29T19:58:37.583Z,5.24
2022-11-29T20:01:08.126Z,5.27
2022-11-29T20:03:34.720Z,5.26
2022-11-29T20:06:01.304Z,5.29
2022-11-29T20:08:28.273Z,5.23
2022-11-29T20:10:54.753Z,5.24
2022-11-29T20:13:21.453Z,5.23
2022-11-29T20:15:47.984Z,5.21
2022-11-29T20:18:14.364Z,5.22
2022-11-29T20:20:40.752Z,5.25
2022-11-29T20:23:07.133Z,5.26
2022-11-29T20:25:33.762Z,5.29
2022-11-29T20:28:00.180Z,5.30
2022-11-29T20:30:26.821Z,5.32
2022-11-29T20:32:53.278Z,5.26
2022-11-29T20:35:19.865Z,5.20
2022-11-29T20:37:47.138Z,5.10
2022-11-29T20:40:17.025Z,5.09
2022-11-29T20:42:46.387Z,5.14
2022-11-29T20:45:13.889Z,5.20
2022-11-29T20:47:46.340Z,5.22
2022-11-29T20:50:23.526Z,5.23
2022-11-29T20:53:11.583Z,5.20
2022-11-29T20:55:42.490Z,5.21
2022-11-29T20:58:12.757Z,5.21
2022-11-29T21:00:39.136Z,5.24
2022-11-29T21:03:05.511Z,5.25
2022-11-29T21:05:31.970Z,5.19
2022-11-29T21:07:58.340Z,5.21
2022-11-29T21:10:24.733Z,5.21
2022-11-29T21:12:51.393Z,5.18
2022-11-29T21:15:18.220Z,5.21
2022-11-29T21:17:44.808Z,5.22
2022-11-29T21:20:29.374Z,5.18
2022-11-29T21:23:14.069Z,5.19
2022-11-29T21:25:54.664Z,5.21
2022-11-29T21:28:21.103Z,5.22
2022-11-29T21:30:47.661Z,5.24
2022-11-29T21:33:14.247Z,5.25
2022-11-29T21:35:40.725Z,5.18
2022-11-29T21:38:09.573Z,5.17
2022-11-29T21:40:35.925Z,5.19
2022-11-29T21:43:02.278Z,5.23
2022-11-29T21:45:28.680Z,5.25
2022-11-29T21:47:55.114Z,5.26
2022-11-29T21:50:21.567Z,5.23
2022-11-29T21:52:51.274Z,5.21
2022-11-29T21:55:17.813Z,5.22
2022-11-29T21:57:44.156Z,5.21
2022-11-29T22:00:11.026Z,5.21
2022-11-29T22:02:37.566Z,5.23
2022-11-29T22:05:04.120Z,5.24
2022-11-29T22:07:30.480Z,5.23
2022-11-29T22:09:56.884Z,5.18
2022-11-29T22:12:34.363Z,5.21
2022-11-29T22:15:01.183Z,5.24
2022-11-29T22:17:27.599Z,5.26
2022-11-29T22:19:53.962Z,5.19
2022-11-29T22:22:20.362Z,5.22
2022-11-29T22:24:46.988Z,5.22
2022-11-29T22:27:13.512Z,5.22
2022-11-29T22:29:39.893Z,5.21
2022-11-29T22:32:06.310Z,5.21
2022-11-29T22:34:32.741Z,5.22
2022-11-29T22:36:59.107Z,5.20
2022-11-29T22:39:25.627Z,5.19
2022-11-29T22:41:54.742Z,5.21
2022-11-29T22:44:22.465Z,5.17
2022-11-29T22:46:48.924Z,5.17
2022-11-29T22:49:15.315Z,5.15
2022-11-29T22:51:41.683Z,5.21
2022-11-29T22:54:09.268Z,5.23
2022-11-29T22:56:40.267Z,5.24
2022-11-29T22:59:06.893Z,5.24
2022-11-29T23:01:34.734Z,5.25
2022-11-29T23:04:03.797Z,5.17
2022-11-29T23:06:31.891Z,5.18
2022-11-29T23:08:59.321Z,5.22
2022-11-29T23:11:27.318Z,5.25
2022-11-29T23:13:53.990Z,5.27
2022-11-29T23:16:22.172Z,5.28
2022-11-29T23:18:48.735Z,5.21
2022-11-29T23:21:25.643Z,5.15
2022-11-29T23:23:56.271Z,5.12
2022-11-29T23:26:36.333Z,5.10
2022-11-29T23:29:03.579Z,5.06
2022-11-29T23:31:30.016Z,5.03
2022-11-29T23:33:56.389Z,5.04
2022-11-29T23:36:22.737Z,5.05
2022-11-29T23:38:49.145Z,5.11
2022-11-29T23:41:15.528Z,5.11
2022-11-29T23:43:42.116Z,5.10
2022-11-29T23:46:15.461Z,5.02
2022-11-29T23:48:42.324Z,5.06
2022-11-29T23:51:08.957Z,5.11
2022-11-29T23:53:35.325Z,5.13
2022-11-29T23:56:06.518Z,5.18
2022-11-29T23:58:33.060Z,5.18
